createdAt,value
2023-04-15T00:02:18.978Z,40.43
2023-04-15T00:04:46.999Z,43.51
2023-04-15T00:07:14.965Z,43.64
2023-04-15T00:09:42.319Z,42.59
2023-04-15T00:12:09.232Z,41.16
2023-04-15T00:14:36.863Z,42.05
2023-04-15T00:17:04.749Z,40.26
2023-04-15T00:19:32.736Z,41.11
2023-04-15T00:22:00.849Z,40.28
2023-04-15T00:24:27.945Z,40.36
2023-04-15T00:26:54.828Z,39.96
2023-04-15T00:29:21.775Z,39.37
2023-04-15T00:31:49.327Z,40.36
2023-04-15T00:34:16.085Z,40.77
2023-04-15T00:36:44.053Z,41.67
2023-04-15T00:39:11.100Z,45.58
2023-04-15T00:41:39.764Z,42.59
2023-04-15T00:44:07.173Z,41.29
2023-04-15T00:46:36.911Z,41.20
2023-04-15T00:49:05.110Z,42.92
2023-04-15T00:51:36.231Z,45.32
2023-04-15T00:54:04.671Z,44.38
2023-04-15T00:56:31.600Z,41.22
2023-04-15T00:59:00.003Z,44.54
2023-04-15T01:01:27.342Z,41.83
2023-04-15T01:03:56.854Z,45.90
2023-04-15T01:06:23.790Z,42.96
2023-04-15T01:08:51.033Z,44.79
2023-04-15T01:11:19.395Z,41.17
2023-04-15T01:13:47.626Z,41.90
2023-04-15T01:16:15.140Z,38.44
2023-04-15T01:18:42.553Z,41.04
2023-04-15T01:21:09.680Z,39.49
2023-04-15T01:23:38.680Z,41.03
2023-04-15T01:26:10.405Z,46.18
2023-04-15T01:28:38.321Z,42.58
2023-04-15T01:31:10.062Z,45.60
2023-04-15T01:33:38.196Z,41.96
2023-04-15T01:36:06.279Z,40.24
2023-04-15T01:38:33.706Z,42.03
2023-04-15T01:41:00.816Z,42.49
2023-04-15T01:43:28.276Z,44.46
2023-04-15T01:45:55.124Z,42.08
2023-04-15T01:48:22.254Z,45.77
2023-04-15T01:50:49.074Z,42.51
2023-04-15T01:53:16.913Z,44.84
2023-04-15T01:55:43.861Z,41.25
2023-04-15T01:58:10.706Z,42.26
2023-04-15T02:00:37.515Z,42.16
2023-04-15T02:03:04.696Z,40.12
2023-04-15T02:05:31.719Z,40.03
2023-04-15T02:07:58.469Z,40.33
2023-04-15T02:10:25.639Z,40.02
2023-04-15T02:12:52.363Z,41.72
2023-04-15T02:15:19.273Z,41.25
2023-04-15T02:17:50.980Z,39.66
2023-04-15T02:20:19.297Z,41.58
2023-04-15T02:22:46.202Z,40.77
2023-04-15T02:25:16.857Z,40.96
2023-04-15T02:27:46.900Z,45.49
2023-04-15T02:30:15.933Z,43.72
2023-04-15T02:32:45.195Z,40.74
2023-04-15T02:35:12.551Z,43.14
2023-04-15T02:37:43.601Z,41.99
2023-04-15T02:40:12.440Z,41.76
2023-04-15T02:42:40.339Z,39.94
2023-04-15T02:45:10.355Z,42.68
2023-04-15T02:47:37.168Z,41.63
2023-04-15T02:50:09.570Z,41.10
2023-04-15T02:52:36.814Z,42.56
2023-04-15T02:55:05.938Z,42.25
2023-04-15T02:57:32.740Z,42.22
2023-04-15T03:00:06.261Z,41.29
2023-04-15T03:02:36.538Z,45.14
2023-04-15T03:05:06.181Z,42.94
2023-04-15T03:07:33.480Z,41.79
2023-04-15T03:10:02.342Z,43.22
2023-04-15T03:12:30.533Z,44.71
2023-04-15T03:14:58.304Z,43.48
2023-04-15T03:17:32.885Z,43.53
2023-04-15T03:20:02.087Z,42.16
2023-04-15T03:22:28.991Z,41.19
2023-04-15T03:24:56.241Z,41.16
2023-04-15T03:27:23.359Z,41.60
2023-04-15T03:29:51.375Z,40.78
2023-04-15T03:32:18.676Z,42.86
2023-04-15T03:34:45.438Z,41.88
2023-04-15T03:37:12.230Z,39.71
2023-04-15T03:39:39.281Z,39.65
2023-04-15T03:42:06.263Z,40.44
2023-04-15T03:44:32.957Z,42.92
2023-04-15T03:46:59.786Z,41.13
2023-04-15T03:49:26.513Z,40.32
2023-04-15T03:51:53.473Z,42.73
2023-04-15T03:54:20.172Z,41.00
2023-04-15T03:56:47.062Z,41.40
2023-04-15T03:59:13.771Z,41.52
2023-04-15T04:01:40.464Z,42.88
2023-04-15T04:04:07.715Z,41.75
2023-04-15T04:06:35.084Z,40.70
2023-04-15T04:09:02.808Z,40.55
2023-04-15T04:11:29.787Z,41.35
2023-04-15T04:13:56.639Z,41.81
2023-04-15T04:16:23.476Z,41.19
2023-04-15T04:18:50.416Z,42.94
2023-04-15T04:21:17.342Z,41.93
2023-04-15T04:23:44.144Z,41.26
2023-04-15T04:26:11.027Z,41.56
2023-04-15T04:28:39.617Z,44.93
2023-04-15T04:31:07.906Z,41.29
2023-04-15T04:33:35.084Z,39.21
2023-04-15T04:36:02.092Z,42.98
2023-04-15T04:38:28.850Z,45.11
2023-04-15T04:40:55.627Z,40.48
2023-04-15T04:43:22.430Z,40.15
2023-04-15T04:45:49.298Z,40.93
2023-04-15T04:48:17.153Z,43.95
2023-04-15T04:50:44.893Z,41.38
2023-04-15T04:53:12.062Z,41.38
2023-04-15T04:55:38.807Z,44.99
2023-04-15T04:58:05.749Z,42.43
2023-04-15T05:00:33.064Z,41.29
2023-04-15T05:03:00.167Z,39.85
2023-04-15T05:05:27.137Z,43.04
2023-04-15T05:07:54.020Z,42.40
2023-04-15T05:10:21.310Z,41.05
2023-04-15T05:12:48.101Z,45.36
2023-04-15T05:15:14.799Z,44.85
2023-04-15T05:17:41.655Z,43.87
2023-04-15T05:20:08.855Z,47.59
2023-04-15T05:22:35.936Z,42.49
2023-04-15T05:25:02.962Z,39.36
2023-04-15T05:27:29.963Z,45.06
2023-04-15T05:29:56.833Z,40.85
2023-04-15T05:32:23.831Z,40.52
2023-04-15T05:34:50.825Z,44.01
2023-04-15T05:37:17.818Z,41.20
2023-04-15T05:39:44.572Z,39.20
2023-04-15T05:42:11.524Z,41.05
2023-04-15T05:44:38.603Z,39.43
2023-04-15T05:47:06.257Z,40.30
2023-04-15T05:49:33.155Z,43.31
2023-04-15T05:51:59.892Z,43.04
2023-04-15T05:54:27.913Z,41.13
2023-04-15T05:56:55.147Z,44.83
2023-04-15T05:59:22.434Z,44.27
2023-04-15T06:01:50.148Z,40.26
2023-04-15T06:04:17.906Z,41.38
2023-04-15T06:06:44.836Z,39.84
2023-04-15T06:09:11.698Z,39.88
2023-04-15T06:11:38.751Z,41.68
2023-04-15T06:14:05.467Z,42.24
2023-04-15T06:16:32.328Z,40.67
2023-04-15T06:18:59.116Z,40.99
2023-04-15T06:21:25.933Z,39.63
2023-04-15T06:23:53.299Z,39.53
2023-04-15T06:26:20.642Z,40.01
2023-04-15T06:28:47.557Z,43.69
2023-04-15T06:31:14.686Z,39.84
2023-04-15T06:33:41.479Z,39.06
2023-04-15T06:36:08.178Z,42.15
2023-04-15T06:38:35.064Z,40.46
2023-04-15T06:41:03.410Z,40.57
2023-04-15T06:43:30.832Z,42.17
2023-04-15T06:45:57.556Z,39.81
2023-04-15T06:48:24.951Z,39.79
2023-04-15T06:50:53.183Z,38.62
2023-04-15T06:53:19.885Z,40.62
2023-04-15T06:55:46.649Z,41.58
2023-04-15T06:58:13.410Z,38.94
2023-04-15T07:00:40.689Z,39.46
2023-04-15T07:03:11.090Z,40.03
2023-04-15T07:05:38.785Z,39.60
2023-04-15T07:08:06.940Z,39.00
2023-04-15T07:10:34.428Z,41.34
2023-04-15T07:13:01.902Z,40.26
2023-04-15T07:15:29.301Z,39.31
2023-04-15T07:17:56.316Z,39.26
2023-04-15T07:20:23.396Z,40.34
2023-04-15T07:22:50.123Z,38.41
2023-04-15T07:25:17.802Z,37.66
2023-04-15T07:27:44.903Z,38.15
2023-04-15T07:30:12.846Z,37.88
2023-04-15T07:32:40.562Z,37.19
2023-04-15T07:35:08.585Z,36.87
2023-04-15T07:37:36.344Z,38.76
2023-04-15T07:40:05.076Z,36.71
2023-04-15T07:42:31.866Z,35.42
2023-04-15T07:44:58.634Z,36.61
2023-04-15T07:47:25.866Z,36.99
2023-04-15T07:49:53.786Z,36.40
2023-04-15T07:52:20.544Z,36.74
2023-04-15T07:54:47.208Z,35.39
2023-04-15T07:57:13.985Z,36.01
2023-04-15T07:59:40.733Z,35.83
2023-04-15T08:02:08.880Z,36.28
2023-04-15T08:04:35.880Z,34.25
2023-04-15T08:07:04.232Z,32.70
2023-04-15T08:09:31.347Z,35.86
2023-04-15T08:11:58.125Z,35.96
2023-04-15T08:14:25.493Z,34.75
2023-04-15T08:16:52.693Z,36.97
2023-04-15T08:19:19.947Z,33.86
2023-04-15T08:21:46.893Z,35.09
2023-04-15T08:24:13.707Z,34.85
2023-04-15T08:26:40.584Z,34.90
2023-04-15T08:29:07.776Z,36.05
2023-04-15T08:31:34.851Z,35.46
2023-04-15T08:34:01.776Z,32.46
2023-04-15T08:36:28.641Z,33.37
2023-04-15T08:38:56.137Z,34.74
2023-04-15T08:41:27.411Z,34.29
2023-04-15T08:44:06.916Z,33.88
2023-04-15T08:46:34.976Z,34.63
2023-04-15T08:49:05.250Z,33.19
2023-04-15T08:51:32.984Z,34.46
2023-04-15T08:54:01.554Z,35.00
2023-04-15T08:56:28.451Z,33.58
2023-04-15T08:58:55.744Z,33.62
2023-04-15T09:01:23.424Z,34.37
2023-04-15T09:03:51.015Z,34.83
2023-04-15T09:06:18.777Z,35.02
2023-04-15T09:08:45.824Z,33.66
2023-04-15T09:11:12.625Z,33.05
2023-04-15T09:13:40.193Z,35.47
2023-04-15T09:16:08.645Z,32.49
2023-04-15T09:18:39.734Z,33.68
2023-04-15T09:21:09.807Z,33.53
2023-04-15T09:23:38.508Z,33.76
2023-04-15T09:26:05.872Z,31.69
2023-04-15T09:28:32.811Z,32.19
2023-04-15T09:31:01.292Z,32.42
2023-04-15T09:33:29.295Z,34.34
2023-04-15T09:36:06.111Z,32.90
2023-04-15T09:38:33.071Z,31.99
2023-04-15T09:41:00.224Z,33.25
2023-04-15T09:43:41.061Z,30.66
2023-04-15T09:46:07.860Z,32.49
2023-04-15T09:48:36.525Z,30.99
2023-04-15T09:51:03.499Z,32.29
2023-04-15T09:53:34.419Z,32.38
2023-04-15T09:56:02.804Z,33.20
2023-04-15T09:58:31.991Z,32.60
2023-04-15T10:01:00.489Z,34.76
2023-04-15T10:03:30.337Z,32.83
2023-04-15T10:06:00.284Z,32.00
2023-04-15T10:08:29.201Z,31.93
2023-04-15T10:10:56.788Z,32.68
2023-04-15T10:13:26.798Z,31.75
2023-04-15T10:15:59.607Z,32.42
2023-04-15T10:18:28.158Z,32.33
2023-04-15T10:20:55.665Z,33.20
2023-04-15T10:23:25.567Z,31.11
2023-04-15T10:25:56.699Z,29.46
2023-04-15T10:28:24.131Z,31.73
2023-04-15T10:30:52.736Z,31.00
2023-04-15T10:33:22.876Z,30.00
2023-04-15T10:35:51.767Z,31.48
2023-04-15T10:38:37.500Z,30.31
2023-04-15T10:41:28.148Z,30.56
2023-04-15T10:43:57.954Z,29.67
2023-04-15T10:46:36.056Z,30.03
2023-04-15T10:49:08.320Z,30.08
2023-04-15T10:51:41.935Z,30.48
2023-04-15T10:54:16.269Z,31.46
2023-04-15T10:56:44.885Z,29.20
2023-04-15T10:59:12.728Z,33.26
2023-04-15T11:01:58.856Z,30.88
2023-04-15T11:04:55.114Z,30.73
2023-04-15T11:07:44.348Z,30.28
2023-04-15T11:10:13.817Z,29.26
2023-04-15T11:12:42.169Z,31.86
2023-04-15T11:15:43.061Z,31.81
2023-04-15T11:18:16.846Z,29.55
2023-04-15T11:20:45.427Z,31.47
2023-04-15T11:23:15.295Z,30.57
2023-04-15T11:25:43.312Z,30.65
2023-04-15T11:28:12.304Z,29.79
2023-04-15T11:30:41.349Z,29.33
2023-04-15T11:33:10.186Z,30.70
2023-04-15T11:35:37.023Z,29.28
2023-04-15T11:38:12.412Z,29.83
2023-04-15T11:40:39.940Z,31.37
2023-04-15T11:43:15.863Z,31.21
2023-04-15T11:45:56.472Z,30.44
2023-04-15T11:48:26.407Z,30.42
2023-04-15T11:50:56.325Z,30.83
2023-04-15T11:53:24.182Z,30.75
2023-04-15T11:55:53.998Z,29.29
2023-04-15T11:58:23.434Z,29.53
2023-04-15T12:01:00.288Z,28.84
2023-04-15T12:03:28.663Z,31.85
2023-04-15T12:06:13.502Z,30.31
2023-04-15T12:08:55.447Z,29.60
2023-04-15T12:11:31.396Z,28.69
2023-04-15T12:14:11.387Z,30.19
2023-04-15T12:16:45.703Z,31.96
2023-04-15T12:19:19.442Z,29.80
2023-04-15T12:21:48.707Z,31.59
2023-04-15T12:24:15.524Z,31.38
2023-04-15T12:26:53.720Z,31.98
2023-04-15T12:29:25.412Z,31.21
2023-04-15T12:31:53.506Z,32.03
2023-04-15T12:34:32.412Z,32.50
2023-04-15T12:37:03.604Z,32.19
2023-04-15T12:39:37.868Z,32.85
2023-04-15T12:42:05.433Z,32.75
2023-04-15T12:44:33.217Z,32.64
2023-04-15T12:47:00.617Z,34.06
2023-04-15T12:49:28.209Z,33.19
2023-04-15T12:51:57.116Z,34.13
2023-04-15T12:54:23.908Z,35.51
2023-04-15T12:56:51.406Z,34.34
2023-04-15T12:59:18.811Z,35.50
2023-04-15T13:01:47.562Z,36.80
2023-04-15T13:04:15.200Z,36.62
2023-04-15T13:06:42.291Z,36.04
2023-04-15T13:09:09.411Z,35.70
2023-04-15T13:11:36.769Z,35.97
2023-04-15T13:14:09.465Z,35.19
2023-04-15T13:16:36.675Z,37.56
2023-04-15T13:19:04.022Z,35.20
2023-04-15T13:21:35.294Z,36.58
2023-04-15T13:24:04.276Z,37.88
2023-04-15T13:26:31.759Z,37.68
2023-04-15T13:28:59.127Z,36.77
2023-04-15T13:31:26.352Z,36.25
2023-04-15T13:33:53.374Z,36.10
2023-04-15T13:36:20.126Z,33.33
2023-04-15T13:38:48.041Z,35.91
2023-04-15T13:41:16.494Z,34.79
2023-04-15T13:43:43.875Z,34.34
2023-04-15T13:46:11.238Z,32.83
2023-04-15T13:48:38.272Z,34.56
2023-04-15T13:51:05.030Z,33.71
2023-04-15T13:53:37.753Z,33.51
2023-04-15T13:56:08.709Z,33.88
2023-04-15T13:58:36.964Z,33.26
2023-04-15T14:01:05.839Z,34.56
2023-04-15T14:03:34.574Z,34.45
2023-04-15T14:06:01.635Z,35.18
2023-04-15T14:08:29.013Z,34.65
2023-04-15T14:10:55.812Z,33.05
2023-04-15T14:13:23.088Z,33.20
2023-04-15T14:15:49.883Z,32.84
2023-04-15T14:18:16.856Z,32.91
2023-04-15T14:20:43.759Z,35.22
2023-04-15T14:23:10.477Z,33.36
2023-04-15T14:25:39.303Z,33.93
2023-04-15T14:28:06.154Z,34.58
2023-04-15T14:30:33.201Z,32.04
2023-04-15T14:33:00.104Z,36.52
2023-04-15T14:35:27.580Z,32.92
2023-04-15T14:37:55.758Z,33.29
2023-04-15T14:40:22.846Z,35.22
2023-04-15T14:42:49.820Z,35.35
2023-04-15T14:45:17.610Z,34.76
2023-04-15T14:47:45.075Z,33.49
2023-04-15T14:50:13.465Z,35.39
2023-04-15T14:52:40.236Z,34.10
2023-04-15T14:55:12.034Z,34.54
2023-04-15T14:57:40.132Z,32.28
2023-04-15T15:00:08.822Z,32.74
2023-04-15T15:02:39.597Z,31.72
2023-04-15T15:05:09.006Z,31.28
2023-04-15T15:07:37.353Z,30.85
2023-04-15T15:10:04.725Z,31.76
2023-04-15T15:12:32.101Z,31.12
2023-04-15T15:15:00.416Z,32.21
2023-04-15T15:17:27.433Z,31.69
2023-04-15T15:19:55.721Z,33.27
2023-04-15T15:22:22.548Z,32.27
2023-04-15T15:24:49.283Z,31.95
2023-04-15T15:27:16.097Z,32.34
2023-04-15T15:29:43.577Z,30.69
2023-04-15T15:32:10.362Z,30.94
2023-04-15T15:34:37.005Z,31.17
2023-04-15T15:37:03.732Z,32.79
2023-04-15T15:39:30.487Z,33.06
2023-04-15T15:41:57.620Z,31.94
2023-04-15T15:44:24.406Z,31.14
2023-04-15T15:46:51.481Z,31.45
2023-04-15T15:49:18.367Z,32.65
2023-04-15T15:51:45.973Z,33.60
2023-04-15T15:54:13.756Z,33.86
2023-04-15T15:56:40.658Z,33.22
2023-04-15T15:59:07.375Z,33.35
2023-04-15T16:01:34.356Z,33.73
2023-04-15T16:04:01.361Z,35.32
2023-04-15T16:06:28.936Z,35.21
2023-04-15T16:08:55.708Z,34.97
2023-04-15T16:11:23.337Z,34.83
2023-04-15T16:13:50.109Z,34.57
2023-04-15T16:16:17.018Z,38.46
2023-04-15T16:18:44.021Z,37.87
2023-04-15T16:21:10.957Z,37.66
2023-04-15T16:23:38.345Z,38.55
2023-04-15T16:26:05.257Z,38.99
2023-04-15T16:28:32.192Z,38.20
2023-04-15T16:30:59.461Z,39.61
2023-04-15T16:33:26.967Z,37.66
2023-04-15T16:35:53.844Z,38.23
2023-04-15T16:38:21.677Z,38.99
2023-04-15T16:40:48.460Z,38.02
2023-04-15T16:43:15.522Z,39.39
2023-04-15T16:45:44.432Z,38.14
2023-04-15T16:48:11.332Z,38.96
2023-04-15T16:50:38.549Z,37.96
2023-04-15T16:53:05.356Z,38.53
2023-04-15T16:55:32.034Z,36.28
2023-04-15T16:58:02.458Z,37.71
2023-04-15T17:00:31.604Z,38.89
2023-04-15T17:03:00.731Z,37.32
2023-04-15T17:05:28.163Z,41.08
2023-04-15T17:07:55.520Z,37.98
2023-04-15T17:10:22.612Z,38.32
2023-04-15T17:12:52.069Z,37.06
2023-04-15T17:15:20.135Z,39.79
2023-04-15T17:17:46.954Z,38.70
2023-04-15T17:20:14.717Z,40.13
2023-04-15T17:22:42.274Z,38.52
2023-04-15T17:25:09.471Z,38.21
2023-04-15T17:27:36.377Z,39.93
2023-04-15T17:30:03.239Z,40.56
2023-04-15T17:32:34.473Z,39.58
2023-04-15T17:35:05.616Z,38.72
2023-04-15T17:37:36.119Z,38.71
2023-04-15T17:40:04.047Z,39.56
2023-04-15T17:42:32.270Z,37.68
2023-04-15T17:45:04.179Z,40.45
2023-04-15T17:47:34.270Z,40.50
2023-04-15T17:50:01.728Z,39.35
2023-04-15T17:52:28.994Z,37.91
2023-04-15T17:54:55.933Z,36.49
2023-04-15T17:57:22.922Z,40.14
2023-04-15T17:59:49.686Z,38.89
2023-04-15T18:02:17.217Z,39.93
2023-04-15T18:04:44.172Z,42.04
2023-04-15T18:07:11.167Z,41.10
2023-04-15T18:09:38.063Z,39.05
2023-04-15T18:12:07.574Z,40.81
2023-04-15T18:14:35.359Z,41.29
2023-04-15T18:17:02.755Z,42.29
2023-04-15T18:19:30.913Z,41.59
2023-04-15T18:22:00.263Z,39.84
2023-04-15T18:24:27.840Z,41.77
2023-04-15T18:26:54.579Z,45.21
2023-04-15T18:29:21.350Z,41.42
2023-04-15T18:31:48.428Z,41.47
2023-04-15T18:34:15.728Z,41.32
2023-04-15T18:36:42.769Z,41.88
2023-04-15T18:39:09.796Z,38.48
2023-04-15T18:41:36.692Z,41.35
2023-04-15T18:44:03.401Z,41.70
2023-04-15T18:46:30.712Z,40.33
2023-04-15T18:48:57.484Z,42.12
2023-04-15T18:51:24.263Z,41.92
2023-04-15T18:53:51.579Z,38.93
2023-04-15T18:56:18.393Z,42.86
2023-04-15T18:59:11.553Z,39.61
2023-04-15T19:01:32.601Z,41.70
2023-04-15T19:03:59.681Z,42.17
2023-04-15T19:06:27.388Z,42.47
2023-04-15T19:08:54.975Z,44.98
2023-04-15T19:11:21.847Z,42.60
2023-04-15T19:13:48.660Z,41.82
2023-04-15T19:16:15.877Z,44.48
2023-04-15T19:18:43.174Z,45.87
2023-04-15T19:21:11.813Z,42.56
2023-04-15T19:23:39.288Z,43.97
2023-04-15T19:26:08.274Z,41.96
2023-04-15T19:28:35.039Z,41.78
2023-04-15T19:31:02.086Z,41.61
2023-04-15T19:33:31.351Z,43.02
2023-04-15T19:36:04.110Z,39.62
2023-04-15T19:38:31.913Z,42.84
2023-04-15T19:40:59.652Z,43.51
2023-04-15T19:43:26.514Z,42.50
2023-04-15T19:45:54.659Z,43.10
2023-04-15T19:48:22.893Z,42.82
2023-04-15T19:50:50.095Z,42.94
2023-04-15T19:53:17.293Z,45.75
2023-04-15T19:55:44.261Z,44.29
2023-04-15T19:58:11.825Z,42.23
2023-04-15T20:00:38.855Z,45.32
2023-04-15T20:03:05.908Z,43.15
2023-04-15T20:05:32.758Z,43.85
2023-04-15T20:08:01.442Z,44.76
2023-04-15T20:10:28.313Z,43.53
2023-04-15T20:12:55.557Z,42.95
2023-04-15T20:15:23.952Z,43.15
2023-04-15T20:17:51.241Z,42.38
2023-04-15T20:20:18.454Z,43.30
2023-04-15T20:22:45.425Z,44.54
2023-04-15T20:25:12.498Z,44.08
2023-04-15T20:27:39.582Z,45.23
2023-04-15T20:30:07.390Z,43.40
2023-04-15T20:32:36.139Z,43.59
2023-04-15T20:35:04.442Z,42.06
2023-04-15T20:37:33.643Z,43.87
2023-04-15T20:40:01.837Z,41.99
2023-04-15T20:42:33.675Z,41.61
2023-04-15T20:45:01.389Z,42.01
2023-04-15T20:47:28.487Z,43.84
2023-04-15T20:49:55.724Z,41.45
2023-04-15T20:52:22.474Z,42.34
2023-04-15T20:54:49.310Z,44.21
2023-04-15T20:57:16.891Z,41.98
2023-04-15T20:59:43.867Z,42.62
2023-04-15T21:02:11.066Z,41.98
2023-04-15T21:04:41.096Z,42.14
2023-04-15T21:07:08.106Z,40.30
2023-04-15T21:09:34.847Z,41.41
2023-04-15T21:12:02.424Z,42.97
2023-04-15T21:14:29.518Z,39.67
2023-04-15T21:16:59.078Z,41.18
2023-04-15T21:19:26.067Z,41.98
2023-04-15T21:21:52.811Z,43.52
2023-04-15T21:24:19.606Z,41.04
2023-04-15T21:26:47.030Z,40.46
2023-04-15T21:29:13.914Z,42.13
2023-04-15T21:31:41.277Z,40.00
2023-04-15T21:34:08.242Z,41.95
2023-04-15T21:36:34.995Z,42.05
2023-04-15T21:39:02.576Z,41.84
2023-04-15T21:41:29.973Z,42.63
2023-04-15T21:43:57.366Z,42.05
2023-04-15T21:46:25.690Z,40.62
2023-04-15T21:48:59.863Z,42.37
2023-04-15T21:51:26.919Z,40.96
2023-04-15T21:53:53.839Z,41.50
2023-04-15T21:56:23.143Z,39.21
2023-04-15T21:58:50.140Z,39.70
2023-04-15T22:01:17.565Z,38.78
2023-04-15T22:03:44.557Z,38.25
2023-04-15T22:06:13.623Z,38.96
2023-04-15T22:08:54.787Z,39.42
2023-04-15T22:11:26.974Z,38.38
2023-04-15T22:13:54.386Z,40.90
2023-04-15T22:16:21.264Z,41.95
2023-04-15T22:18:48.076Z,39.06
2023-04-15T22:21:15.057Z,39.69
2023-04-15T22:23:41.800Z,40.88
2023-04-15T22:26:08.585Z,41.07
2023-04-15T22:28:35.307Z,40.74
2023-04-15T22:31:02.926Z,43.28
2023-04-15T22:33:29.660Z,41.35
2023-04-15T22:35:56.984Z,43.00
2023-04-15T22:38:24.461Z,39.28
2023-04-15T22:40:53.948Z,40.25
2023-04-15T22:43:20.726Z,40.63
2023-04-15T22:45:51.481Z,38.28
2023-04-15T22:48:19.163Z,41.83
2023-04-15T22:50:46.606Z,42.95
2023-04-15T22:53:20.125Z,39.43
2023-04-15T22:55:48.166Z,40.17
2023-04-15T22:58:16.640Z,41.79
2023-04-15T23:00:43.498Z,41.96
2023-04-15T23:03:11.007Z,42.15
2023-04-15T23:05:40.056Z,41.51
2023-04-15T23:08:07.440Z,40.76
2023-04-15T23:10:34.548Z,43.15
2023-04-15T23:13:01.928Z,43.08
2023-04-15T23:15:28.671Z,40.51
2023-04-15T23:17:55.469Z,44.07
2023-04-15T23:20:22.255Z,44.50
2023-04-15T23:22:49.464Z,42.57
2023-04-15T23:25:16.629Z,42.43
2023-04-15T23:27:43.529Z,43.68
2023-04-15T23:30:10.485Z,41.94
2023-04-15T23:32:37.198Z,41.60
2023-04-15T23:35:04.468Z,46.22
2023-04-15T23:37:34.342Z,41.99
2023-04-15T23:40:01.229Z,42.08
2023-04-15T23:42:28.788Z,41.21
2023-04-15T23:44:55.778Z,40.03
2023-04-15T23:47:22.837Z,42.32
2023-04-15T23:49:50.074Z,44.45
2023-04-15T23:52:17.352Z,46.90
2023-04-15T23:54:44.345Z,43.63
2023-04-15T23:57:11.276Z,44.34
2023-04-15T23:59:38.077Z,44.45
